Historyczne dane pomiarowe

Dodano dane terminowe – wersja testowa.

Dane z okresu 1951-2019

Wersja bazy: 1.34 [2019-03-16, lista zmian], aktualizacja planowana na 2019-04-15

Dane meteo z obszaru Polski uzyskane na podstawie danych udostępnionych przez Instytut Meteorologii i Gospodarki Wodnej – Państwowy Instytut Badawczy.

 

Wybierz Datę:    

       

TemperaturaWilgotnośćWiatrCiśnienieOpadyŚniegCzas trwania zjawisk
 Stacja t tx tn tng RH VA  wxwx mslp ppp RRR   cm mm wxwxwxwxwxwxwx
1963-02-14 -2.7 -0.9 -4.8--- 8.0 1.3---- 0.0-- 35---------
1963-02-15 -1.1 1.1 -4.0--- 8.0 0.3---- 0.0-- 35---------
1963-02-16 -5.7 1.1 -7.6--- 4.0 0.7---- 0.0-- 35---------
1963-02-17 -1.7 0.1 -9.7--- 8.0 0.7---- 11.2-- 34---------
1963-02-18 -2.0 0.1 -2.8--- 8.0 1.3---- 0.3-- 40---------
1963-02-19 -0.8 1.6 -4.2--- 8.0 0.7---- 2.2-- 40---------
1963-02-20 -0.7 1.1 -1.7--- 8.0 1.0---- 6.2-- 50---------
1963-02-21 -4.9 -1.4 -5.4--- 8.0 1.3---- 2.6-- 52---------
1963-02-22 -8.8 -5.2-10.1--- 5.3 1.3---- 0.0-- 52---------
1963-02-23-11.1 -4.8-14.9--- 2.7 0.7---- 0.0-- 52---------
1963-02-24-16.9 -8.0-25.0--- 0.0 0.3---- 0.0-- 52---------
1963-02-25-12.4 -8.4-25.5--- 5.3 0.7---- 2.6-- 52---------
1963-02-26-13.6 -4.3-19.3--- 2.7 2.7---- 0.0-- 52---------
1963-02-27-21.0 -4.8-28.0--- 0.0 0.0---- 0.0-- 52---------
1963-02-28-21.4-11.7-29.5--- 2.7 0.0---- 0.0-- 52---------
1963-03-01-14.7 -8.3-25.0--- 0.0 0.7---- 0.0-- 52---------
1963-03-02 -7.6 -3.1-15.1--- 4.0 1.7---- 0.0-- 52---------
1963-03-03 -4.3 -2.7 -9.2--- 5.3 2.0---- 1.1-- 46---------
1963-03-04 -1.4 -0.5 -3.8--- 8.0 1.7---- 0.4-- 46---------
1963-03-05 -0.7 1.1 -5.8--- 8.0 0.3---- 0.0-- 47---------
1963-03-06 -1.1 4.3 -9.7--- 5.3 1.3---- 0.0-- 47---------
1963-03-07 2.7 6.1 1.1--- 0.0 2.7---- 0.0-- 45---------
1963-03-08 4.7 7.1 2.0--- 5.3 3.3---- 0.0-- 30---------
1963-03-09 2.0 5.1 0.4--- 8.0 0.7---- 1.6-- 30---------
1963-03-10 -1.3 0.9 -2.8--- 8.0 2.0---- 0.2-- 28---------
1963-03-11 2.0 4.6 -1.8--- 8.0 0.7---- 2.0-- 24---------
1963-03-12 2.9 6.3 1.4--- 8.0 0.3---- 12.2-- 20---------
1963-03-13 2.7 4.1 1.4--- 8.0 4.0---- 0.0-- 17---------
1963-03-14 -5.0 2.1 -6.9--- 8.0 4.7---- 0.0-- 17---------
1963-03-15 -9.2 -5.6-10.9--- 0.0 2.7---- 0.0-- 10---------
153.2 ms

 

Źródłem pochodzenia danych jest Instytut Meteorologii i Gospodarki Wodnej – Państwowy Instytut Badawczy. Dane Instytutu Meteorologii i Gospodarki Wodnej – Państwowego Instytutu Badawczego zostały przetworzone.

Dane źródłowe można odnaleźć na stronie https://dane.imgw.pl